MSC Ines — 3EFZ3 — position and weather

sailwx.info

Track history (hours):
 
Tides and Currents Weather Stations Pressure Air Temp Water Temp Dewpoint Dewpoint Depression Visibility Wind Speed Wind Dir Waves Ship Positions

MSC Ines

Last reported at 2014-Oct-16 10:33 UTC. Time now 2014-Oct-25 01:29 UTC.
Position N 35°10' E 139°45'.
Warning: this ship's position is 8 days out of date.

Length 349 m; draft 13.9 m.

Type: Ship (hazmat cat A). MMSI: 356112000.

Date/timePositionNaut miles runAvg speedWind from/ knotsBaromVisibWave heightAir tempDewpointWater temp
2014-Oct-16 10:33N 35°10' E 139°45'1211.7
2014-Oct-16 09:34N 35°22' E 139°42'6 6.2
2014-Oct-16 08:33N 35°28' E 139°42'0 0.3
2014-Oct-16 07:32N 35°28' E 139°42'0 0.0
2014-Oct-16 06:32N 35°28' E 139°42'0 0.0
2014-Oct-16 05:32N 35°28' E 139°42'0 0.0
2014-Oct-16 04:32N 35°28' E 139°42'0 0.0
2014-Oct-16 03:32N 35°28' E 139°42'0 0.0
2014-Oct-16 02:32N 35°28' E 139°42'0 0.0
2014-Oct-16 01:29N 35°28' E 139°42'  
2014-Oct-09 02:32N 30°33' E 122°51'1617.0
2014-Oct-09 01:33N 30°32' E 122°32'1413.8
2014-Oct-09 00:33N 30°33' E 122°15'1111.1
2014-Oct-08 23:33N 30°37' E 122°03'1 0.0
2014-Oct-08 10:33N 30°38' E 122°03'5 4.6
2014-Oct-08 09:33N 30°35' E 122°07'9 9.4
2014-Oct-08 08:33N 30°33' E 122°18'1110.5
2014-Oct-08 07:33N 30°31' E 122°30'7 1.8
2014-Oct-08 03:33N 30°27' E 122°38'0 0.2
2014-Oct-08 02:27N 30°27' E 122°37'0 0.1
2014-Oct-08 00:09N 30°27' E 122°37'3 5.1
2014-Oct-07 23:33N 30°26' E 122°40'2316.3
2014-Oct-07 22:09N 30°13' E 123°02'2715.5
2014-Oct-07 20:23N 29°50' E 122°45'1215.0
2014-Oct-07 19:33N 29°42' E 122°34'1616.2
2014-Oct-07 18:33N 29°47' E 122°16'1312.7
2014-Oct-07 17:34N 29°55' E 122°06'3 3.1
2014-Oct-07 16:32N 29°53' E 122°02'0 0.0
2014-Oct-07 11:25N 29°53' E 122°02'0 0.0
2014-Oct-07 10:31N 29°53' E 122°02'0 0.0
2014-Oct-07 07:25N 29°53' E 122°02'0 0.0
2014-Oct-07 06:13N 29°53' E 122°02'1 2.0
2014-Oct-07 05:34N 29°54' E 122°04'1010.2
2014-Oct-07 04:33N 29°49' E 122°14'9 8.9
2014-Oct-07 03:33N 29°45' E 122°22'2 1.6
2014-Oct-07 02:33N 29°44' E 122°24'6 6.0
2014-Oct-07 01:33N 29°41' E 122°30'7 6.5
2014-Oct-07 00:31N 29°35' E 122°33'6 5.9
2014-Oct-06 23:29N 29°29' E 122°33'6 6.8
2014-Oct-06 22:34N 29°23' E 122°33'1616.4
2014-Oct-06 21:33N 29°06' E 122°33'  
Track history (hours):
 
Tides and Currents Weather Stations Pressure Air Temp Water Temp Dewpoint Dewpoint Depression Visibility Wind Speed Wind Dir Waves Ship Positions

MSC Ines

Last reported at 2014-Oct-16 10:33 UTC. Time now 2014-Oct-25 01:29 UTC.
Position N 35°10' E 139°45'.
Warning: this ship's position is 8 days out of date.

Length 349 m; draft 13.9 m.

Type: Ship (hazmat cat A). MMSI: 356112000.

Date/timePositionNaut miles runAvg speedWind from/ knotsBaromVisibWave heightAir tempDewpointWater temp
2014-Oct-16 10:33N 35°10' E 139°45'1211.7
2014-Oct-16 09:34N 35°22' E 139°42'6 6.2
2014-Oct-16 08:33N 35°28' E 139°42'0 0.3
2014-Oct-16 07:32N 35°28' E 139°42'0 0.0
2014-Oct-16 06:32N 35°28' E 139°42'0 0.0
2014-Oct-16 05:32N 35°28' E 139°42'0 0.0
2014-Oct-16 04:32N 35°28' E 139°42'0 0.0
2014-Oct-16 03:32N 35°28' E 139°42'0 0.0
2014-Oct-16 02:32N 35°28' E 139°42'0 0.0
2014-Oct-16 01:29N 35°28' E 139°42'  
2014-Oct-09 02:32N 30°33' E 122°51'1617.0
2014-Oct-09 01:33N 30°32' E 122°32'1413.8
2014-Oct-09 00:33N 30°33' E 122°15'1111.1
2014-Oct-08 23:33N 30°37' E 122°03'1 0.0
2014-Oct-08 10:33N 30°38' E 122°03'5 4.6
2014-Oct-08 09:33N 30°35' E 122°07'9 9.4
2014-Oct-08 08:33N 30°33' E 122°18'1110.5
2014-Oct-08 07:33N 30°31' E 122°30'7 1.8
2014-Oct-08 03:33N 30°27' E 122°38'0 0.2
2014-Oct-08 02:27N 30°27' E 122°37'0 0.1
2014-Oct-08 00:09N 30°27' E 122°37'3 5.1
2014-Oct-07 23:33N 30°26' E 122°40'2316.3
2014-Oct-07 22:09N 30°13' E 123°02'2715.5
2014-Oct-07 20:23N 29°50' E 122°45'1215.0
2014-Oct-07 19:33N 29°42' E 122°34'1616.2
2014-Oct-07 18:33N 29°47' E 122°16'1312.7
2014-Oct-07 17:34N 29°55' E 122°06'3 3.1
2014-Oct-07 16:32N 29°53' E 122°02'0 0.0
2014-Oct-07 11:25N 29°53' E 122°02'0 0.0
2014-Oct-07 10:31N 29°53' E 122°02'0 0.0
2014-Oct-07 07:25N 29°53' E 122°02'0 0.0
2014-Oct-07 06:13N 29°53' E 122°02'1 2.0
2014-Oct-07 05:34N 29°54' E 122°04'1010.2
2014-Oct-07 04:33N 29°49' E 122°14'9 8.9
2014-Oct-07 03:33N 29°45' E 122°22'2 1.6
2014-Oct-07 02:33N 29°44' E 122°24'6 6.0
2014-Oct-07 01:33N 29°41' E 122°30'7 6.5
2014-Oct-07 00:31N 29°35' E 122°33'6 5.9
2014-Oct-06 23:29N 29°29' E 122°33'6 6.8
2014-Oct-06 22:34N 29°23' E 122°33'1616.4
2014-Oct-06 21:33N 29°06' E 122°33'  

Dump ship's entire track history